Rize — 9HA2781 — position and weather

sailwx.info

Track history (hours):
 
Tides and Currents Weather Stations Pressure Air Temp Water Temp Dewpoint Dewpoint Depression Visibility Wind Speed Wind Dir Waves Ship Positions

Rize

Last reported at 2017-Sep-25 07:22 UTC. Time now 2017-Sep-25 15:29 UTC.
Position N 33°14' W 012°59'.

Length 229 m; draft 13 m.

Type: Cargo ship. MMSI: 215677000.

Date/timePositionNaut miles runAvg speedWind from/ knotsBaromVisibWave heightAir tempDewpointWater temp
2017-Sep-25 07:22N 33°14' W 012°59'411.1
2017-Sep-25 07:00N 33°14' W 013°04'711.1
2017-Sep-25 06:23N 33°15' W 013°12'4211.0
2017-Sep-25 02:33N 33°16' W 014°02'011.1
2017-Sep-25 02:31N 33°16' W 014°03'511.0
2017-Sep-25 02:01N 33°16' W 014°09'911.0
2017-Sep-25 01:11N 33°16' W 014°20'210.9
2017-Sep-25 00:58N 33°17' W 014°23'511.0
2017-Sep-25 00:30N 33°17' W 014°29'611.1
2017-Sep-25 00:00N 33°17' W 014°36'611.0
2017-Sep-24 23:25N 33°17' W 014°43'511.2
2017-Sep-24 23:00N 33°17' W 014°49'611.1
2017-Sep-24 22:30N 33°18' W 014°55'611.2
2017-Sep-24 21:59N 33°18' W 015°02'511.1
2017-Sep-24 21:30N 33°18' W 015°09'611.2
2017-Sep-24 21:00N 33°18' W 015°16'611.4
2017-Sep-24 20:30N 33°18' W 015°22'611.7
2017-Sep-24 19:57N 33°19' W 015°30'511.7
2017-Sep-24 19:30N 33°19' W 015°36'611.6
2017-Sep-24 19:01N 33°19' W 015°43'611.5
2017-Sep-24 18:31N 33°19' W 015°50'611.6
2017-Sep-24 18:01N 33°19' W 015°57'611.7
2017-Sep-24 17:30N 33°20' W 016°04'611.6
2017-Sep-24 17:00N 33°20' W 016°11'611.6
2017-Sep-24 16:31N 33°20' W 016°18'611.5
2017-Sep-24 16:00N 33°20' W 016°25'611.6
2017-Sep-24 15:31N 33°21' W 016°32'611.6
2017-Sep-24 15:01N 33°22' W 016°38'611.6
2017-Sep-24 14:30N 33°23' W 016°45'911.8
2017-Sep-24 13:43N 33°25' W 016°56'611.8
2017-Sep-24 13:14N 33°25' W 017°03'711.7
2017-Sep-24 12:40N 33°27' W 017°11'311.6
2017-Sep-24 12:26N 33°27' W 017°14'1111.5
2017-Sep-24 11:26N 33°29' W 017°28'511.4
2017-Sep-24 11:01N 33°29' W 017°34'611.4
2017-Sep-24 10:30N 33°30' W 017°40'  
Track history (hours):
 
Tides and Currents Weather Stations Pressure Air Temp Water Temp Dewpoint Dewpoint Depression Visibility Wind Speed Wind Dir Waves Ship Positions

Rize

Last reported at 2017-Sep-25 07:22 UTC. Time now 2017-Sep-25 15:29 UTC.
Position N 33°14' W 012°59'.

Length 229 m; draft 13 m.

Type: Cargo ship. MMSI: 215677000.

Date/timePositionNaut miles runAvg speedWind from/ knotsBaromVisibWave heightAir tempDewpointWater temp
2017-Sep-25 07:22N 33°14' W 012°59'411.1
2017-Sep-25 07:00N 33°14' W 013°04'711.1
2017-Sep-25 06:23N 33°15' W 013°12'4211.0
2017-Sep-25 02:33N 33°16' W 014°02'011.1
2017-Sep-25 02:31N 33°16' W 014°03'511.0
2017-Sep-25 02:01N 33°16' W 014°09'911.0
2017-Sep-25 01:11N 33°16' W 014°20'210.9
2017-Sep-25 00:58N 33°17' W 014°23'511.0
2017-Sep-25 00:30N 33°17' W 014°29'611.1
2017-Sep-25 00:00N 33°17' W 014°36'611.0
2017-Sep-24 23:25N 33°17' W 014°43'511.2
2017-Sep-24 23:00N 33°17' W 014°49'611.1
2017-Sep-24 22:30N 33°18' W 014°55'611.2
2017-Sep-24 21:59N 33°18' W 015°02'511.1
2017-Sep-24 21:30N 33°18' W 015°09'611.2
2017-Sep-24 21:00N 33°18' W 015°16'611.4
2017-Sep-24 20:30N 33°18' W 015°22'611.7
2017-Sep-24 19:57N 33°19' W 015°30'511.7
2017-Sep-24 19:30N 33°19' W 015°36'611.6
2017-Sep-24 19:01N 33°19' W 015°43'611.5
2017-Sep-24 18:31N 33°19' W 015°50'611.6
2017-Sep-24 18:01N 33°19' W 015°57'611.7
2017-Sep-24 17:30N 33°20' W 016°04'611.6
2017-Sep-24 17:00N 33°20' W 016°11'611.6
2017-Sep-24 16:31N 33°20' W 016°18'611.5
2017-Sep-24 16:00N 33°20' W 016°25'611.6
2017-Sep-24 15:31N 33°21' W 016°32'611.6
2017-Sep-24 15:01N 33°22' W 016°38'611.6
2017-Sep-24 14:30N 33°23' W 016°45'911.8
2017-Sep-24 13:43N 33°25' W 016°56'611.8
2017-Sep-24 13:14N 33°25' W 017°03'711.7
2017-Sep-24 12:40N 33°27' W 017°11'311.6
2017-Sep-24 12:26N 33°27' W 017°14'1111.5
2017-Sep-24 11:26N 33°29' W 017°28'511.4
2017-Sep-24 11:01N 33°29' W 017°34'611.4
2017-Sep-24 10:30N 33°30' W 017°40'  

Dump ship's entire track history